createdAt,value
2023-04-25T00:00:01.293Z,1.83
2023-04-25T00:02:29.181Z,2.53
2023-04-25T00:04:59.396Z,2.22
2023-04-25T00:07:27.816Z,2.20
2023-04-25T00:09:55.680Z,2.47
2023-04-25T00:12:23.853Z,1.92
2023-04-25T00:14:53.822Z,2.10
2023-04-25T00:17:21.419Z,2.08
2023-04-25T00:19:49.263Z,2.65
2023-04-25T00:22:16.892Z,2.63
2023-04-25T00:24:44.525Z,1.90
2023-04-25T00:27:12.188Z,2.08
2023-04-25T00:29:40.014Z,2.30
2023-04-25T00:32:09.072Z,2.53
2023-04-25T00:34:36.994Z,2.05
2023-04-25T00:37:04.679Z,1.90
2023-04-25T00:39:32.357Z,2.22
2023-04-25T00:42:00.317Z,2.08
2023-04-25T00:44:30.449Z,2.17
2023-04-25T00:46:58.563Z,2.15
2023-04-25T00:49:27.619Z,2.30
2023-04-25T00:51:55.423Z,2.03
2023-04-25T00:54:23.177Z,1.88
2023-04-25T00:56:50.962Z,2.25
2023-04-25T00:59:20.261Z,2.13
2023-04-25T01:01:48.027Z,2.25
2023-04-25T01:04:16.158Z,2.10
2023-04-25T01:06:45.962Z,2.13
2023-04-25T01:09:14.634Z,2.00
2023-04-25T01:11:42.344Z,1.67
2023-04-25T01:14:09.962Z,2.33
2023-04-25T01:16:37.839Z,2.22
2023-04-25T01:19:10.740Z,1.83
2023-04-25T01:21:39.931Z,1.95
2023-04-25T01:24:08.307Z,1.75
2023-04-25T01:26:36.907Z,2.33
2023-04-25T01:29:06.018Z,2.10
2023-04-25T01:31:35.182Z,1.67
2023-04-25T01:34:02.947Z,2.05
2023-04-25T01:36:31.419Z,2.08
2023-04-25T01:39:00.620Z,1.90
2023-04-25T01:41:28.864Z,1.75
2023-04-25T01:43:56.843Z,1.75
2023-04-25T01:46:24.597Z,2.25
2023-04-25T01:48:52.336Z,2.40
2023-04-25T01:51:20.341Z,2.42
2023-04-25T01:53:48.625Z,2.00
2023-04-25T01:56:17.766Z,1.88
2023-04-25T01:58:45.573Z,2.30
2023-04-25T02:01:13.606Z,1.50
2023-04-25T02:03:41.714Z,1.85
2023-04-25T02:06:09.672Z,1.95
2023-04-25T02:08:38.424Z,1.63
2023-04-25T02:11:06.441Z,1.35
2023-04-25T02:13:35.598Z,1.63
2023-04-25T02:16:03.497Z,1.45
2023-04-25T02:18:32.197Z,1.70
2023-04-25T02:21:00.670Z,2.40
2023-04-25T02:23:29.120Z,1.70
2023-04-25T02:25:58.934Z,1.73
2023-04-25T02:28:27.313Z,1.52
2023-04-25T02:30:56.549Z,1.80
2023-04-25T02:33:24.348Z,1.60
2023-04-25T02:35:52.050Z,1.38
2023-04-25T02:38:19.794Z,2.00
2023-04-25T02:40:47.549Z,1.30
2023-04-25T02:43:17.004Z,1.75
2023-04-25T02:45:44.741Z,1.48
2023-04-25T02:48:14.023Z,1.70
2023-04-25T02:50:42.114Z,1.75
2023-04-25T02:53:09.781Z,1.55
2023-04-25T02:55:37.699Z,2.17
2023-04-25T02:58:05.608Z,1.90
2023-04-25T03:00:33.550Z,1.30
2023-04-25T03:03:01.618Z,1.48
2023-04-25T03:05:31.130Z,1.80
2023-04-25T03:07:58.913Z,1.58
2023-04-25T03:10:26.992Z,1.90
2023-04-25T03:12:54.898Z,1.48
2023-04-25T03:15:23.245Z,1.40
2023-04-25T03:17:50.925Z,1.70
2023-04-25T03:20:18.577Z,1.27
2023-04-25T03:22:48.138Z,1.42
2023-04-25T03:25:16.019Z,1.70
2023-04-25T03:27:43.653Z,1.50
2023-04-25T03:30:12.195Z,1.48
2023-04-25T03:32:39.994Z,1.73
2023-04-25T03:35:08.519Z,1.92
2023-04-25T03:37:36.372Z,1.27
2023-04-25T03:40:07.244Z,2.10
2023-04-25T03:42:35.087Z,1.73
2023-04-25T03:45:03.267Z,1.70
2023-04-25T03:47:31.219Z,1.75
2023-04-25T03:49:59.367Z,1.83
2023-04-25T03:52:27.295Z,1.48
2023-04-25T03:54:55.149Z,1.65
2023-04-25T03:57:24.968Z,1.58
2023-04-25T03:59:52.921Z,1.48
2023-04-25T04:02:20.944Z,1.45
2023-04-25T04:04:48.808Z,1.88
2023-04-25T04:07:17.111Z,2.15
2023-04-25T04:09:45.110Z,1.80
2023-04-25T04:12:13.114Z,2.17
2023-04-25T04:14:42.195Z,1.80
2023-04-25T04:17:10.061Z,2.15
2023-04-25T04:19:38.120Z,1.67
2023-04-25T04:22:06.081Z,1.80
2023-04-25T04:24:34.262Z,1.50
2023-04-25T04:27:02.026Z,1.77
2023-04-25T04:29:30.115Z,1.52
2023-04-25T04:31:59.545Z,1.55
2023-04-25T04:34:28.179Z,1.42
2023-04-25T04:36:56.016Z,1.92
2023-04-25T04:39:23.639Z,2.00
2023-04-25T04:41:51.991Z,1.40
2023-04-25T04:44:19.604Z,1.33
2023-04-25T04:46:47.962Z,1.67
2023-04-25T04:49:17.124Z,1.05
2023-04-25T04:51:46.068Z,1.33
2023-04-25T04:54:14.090Z,1.45
2023-04-25T04:56:42.880Z,1.58
2023-04-25T04:59:10.944Z,1.50
2023-04-25T05:01:39.335Z,1.70
2023-04-25T05:04:08.355Z,1.50
2023-04-25T05:06:37.936Z,0.90
2023-04-25T05:09:05.775Z,1.52
2023-04-25T05:11:33.620Z,1.58
2023-04-25T05:14:01.398Z,1.42
2023-04-25T05:16:29.379Z,1.48
2023-04-25T05:18:57.287Z,1.10
2023-04-25T05:21:25.131Z,1.65
2023-04-25T05:23:54.497Z,1.95
2023-04-25T05:26:22.386Z,1.77
2023-04-25T05:28:51.851Z,1.75
2023-04-25T05:31:19.468Z,1.48
2023-04-25T05:33:47.126Z,1.33
2023-04-25T05:36:15.195Z,1.10
2023-04-25T05:38:44.043Z,1.40
2023-04-25T05:41:13.486Z,1.30
2023-04-25T05:43:46.241Z,1.40
2023-04-25T05:46:14.235Z,1.17
2023-04-25T05:48:41.963Z,1.85
2023-04-25T05:51:09.574Z,1.23
2023-04-25T05:53:38.371Z,1.25
2023-04-25T05:56:07.248Z,1.23
2023-04-25T05:58:36.240Z,1.40
2023-04-25T06:01:04.671Z,1.80
2023-04-25T06:03:33.360Z,1.30
2023-04-25T06:06:02.245Z,1.27
2023-04-25T06:08:30.352Z,1.40
2023-04-25T06:10:58.867Z,1.20
2023-04-25T06:13:26.940Z,1.50
2023-04-25T06:15:55.907Z,1.20
2023-04-25T06:18:23.685Z,1.42
2023-04-25T06:20:51.876Z,1.20
2023-04-25T06:23:19.464Z,1.25
2023-04-25T06:25:47.337Z,1.35
2023-04-25T06:28:15.030Z,1.30
2023-04-25T06:30:43.141Z,1.40
2023-04-25T06:33:12.213Z,1.40
2023-04-25T06:35:39.949Z,1.30
2023-04-25T06:38:07.536Z,1.88
2023-04-25T06:40:35.214Z,1.45
2023-04-25T06:43:03.518Z,1.45
2023-04-25T06:45:31.725Z,1.60
2023-04-25T06:48:00.006Z,1.20
2023-04-25T06:50:29.503Z,1.35
2023-04-25T06:52:57.295Z,1.67
2023-04-25T06:55:25.206Z,1.02
2023-04-25T06:57:53.658Z,1.30
2023-04-25T07:00:22.585Z,1.25
2023-04-25T07:02:51.497Z,1.83
2023-04-25T07:05:19.583Z,1.10
2023-04-25T07:07:48.933Z,1.35
2023-04-25T07:10:16.611Z,1.50
2023-04-25T07:12:44.644Z,1.48
2023-04-25T07:15:12.700Z,1.40
2023-04-25T07:17:40.742Z,1.60
2023-04-25T07:20:10.339Z,1.55
2023-04-25T07:22:38.255Z,1.42
2023-04-25T07:25:09.855Z,1.40
2023-04-25T07:27:37.811Z,1.48
2023-04-25T07:30:07.532Z,1.42
2023-04-25T07:32:35.844Z,1.52
2023-04-25T07:35:04.837Z,1.20
2023-04-25T07:37:32.896Z,1.10
2023-04-25T07:40:00.936Z,1.75
2023-04-25T07:42:30.498Z,1.00
2023-04-25T07:44:58.391Z,1.13
2023-04-25T07:47:26.495Z,1.00
2023-04-25T07:49:54.305Z,1.27
2023-04-25T07:52:22.418Z,1.20
2023-04-25T07:54:50.414Z,1.00
2023-04-25T07:57:19.384Z,1.17
2023-04-25T07:59:48.376Z,1.48
2023-04-25T08:02:16.161Z,2.00
2023-04-25T08:04:43.891Z,0.88
2023-04-25T08:07:11.917Z,1.98
2023-04-25T08:09:40.007Z,1.20
2023-04-25T08:12:08.420Z,4.60
2023-04-25T08:14:38.350Z,6.38
2023-04-25T08:17:09.033Z,8.73
2023-04-25T08:19:37.160Z,8.15
2023-04-25T08:22:05.032Z,6.97
2023-04-25T08:24:32.654Z,4.82
2023-04-25T08:27:02.194Z,6.32
2023-04-25T08:29:30.445Z,5.03
2023-04-25T08:31:58.423Z,5.65
2023-04-25T08:34:27.823Z,3.95
2023-04-25T08:36:55.788Z,5.68
2023-04-25T08:39:23.895Z,4.63
2023-04-25T08:41:53.715Z,3.63
2023-04-25T08:44:23.238Z,4.40
2023-04-25T08:46:52.705Z,4.05
2023-04-25T08:49:21.554Z,3.80
2023-04-25T08:51:52.721Z,2.88
2023-04-25T08:54:35.411Z,2.92
2023-04-25T08:57:05.652Z,2.55
2023-04-25T08:59:36.559Z,3.08
2023-04-25T09:02:05.469Z,2.50
2023-04-25T09:04:33.677Z,2.53
2023-04-25T09:07:03.684Z,2.78
2023-04-25T09:09:31.656Z,3.00
2023-04-25T09:12:00.797Z,1.92
2023-04-25T09:14:29.114Z,2.83
2023-04-25T09:17:08.822Z,3.17
2023-04-25T09:19:42.222Z,2.97
2023-04-25T09:22:12.064Z,3.10
2023-04-25T09:24:42.660Z,2.28
2023-04-25T09:27:12.219Z,2.63
2023-04-25T09:29:42.103Z,2.10
2023-04-25T09:32:28.136Z,2.72
2023-04-25T09:34:58.659Z,2.40
2023-04-25T09:37:30.849Z,2.13
2023-04-25T09:40:03.732Z,3.85
2023-04-25T09:42:33.033Z,3.08
2023-04-25T09:45:02.975Z,2.90
2023-04-25T09:47:31.224Z,4.45
2023-04-25T09:49:59.446Z,3.30
2023-04-25T09:52:29.100Z,2.35
2023-04-25T09:54:57.379Z,2.72
2023-04-25T09:57:27.206Z,2.60
2023-04-25T09:59:56.671Z,2.40
2023-04-25T10:02:27.152Z,3.25
2023-04-25T10:04:56.981Z,3.33
2023-04-25T10:07:27.263Z,3.65
2023-04-25T10:10:01.717Z,3.22
2023-04-25T10:12:29.482Z,3.42
2023-04-25T10:14:57.310Z,3.88
2023-04-25T10:17:25.653Z,4.38
2023-04-25T10:19:53.871Z,2.92
2023-04-25T10:22:31.399Z,3.10
2023-04-25T10:25:00.998Z,3.78
2023-04-25T10:27:29.682Z,3.88
2023-04-25T10:30:05.577Z,3.25
2023-04-25T10:32:34.545Z,2.80
2023-04-25T10:35:13.404Z,2.88
2023-04-25T10:37:58.325Z,3.00
2023-04-25T10:40:28.378Z,3.78
2023-04-25T10:42:57.292Z,3.13
2023-04-25T10:45:25.071Z,3.00
2023-04-25T10:47:52.783Z,2.75
2023-04-25T10:50:20.445Z,2.80
2023-04-25T10:52:48.724Z,3.00
2023-04-25T10:55:16.547Z,3.22
2023-04-25T10:57:49.454Z,2.28
2023-04-25T11:00:20.587Z,2.17
2023-04-25T11:02:50.359Z,2.55
2023-04-25T11:05:25.092Z,3.10
2023-04-25T11:08:06.429Z,2.58
2023-04-25T11:10:37.569Z,2.63
2023-04-25T11:13:07.444Z,2.15
2023-04-25T11:15:35.569Z,2.40
2023-04-25T11:18:04.512Z,3.15
2023-04-25T11:20:32.895Z,3.67
2023-04-25T11:25:31.103Z,2.78
2023-04-25T11:28:02.442Z,2.85
2023-04-25T11:30:32.696Z,2.70
2023-04-25T11:33:00.949Z,2.63
2023-04-25T11:35:28.897Z,2.35
2023-04-25T11:37:57.720Z,2.55
2023-04-25T11:40:26.263Z,1.98
2023-04-25T11:42:54.958Z,2.35
2023-04-25T11:45:25.278Z,1.73
2023-04-25T11:47:54.752Z,1.98
2023-04-25T11:50:22.642Z,2.83
2023-04-25T11:52:51.417Z,2.25
2023-04-25T11:55:21.149Z,2.28
2023-04-25T11:57:51.065Z,1.73
2023-04-25T12:00:21.490Z,2.50
2023-04-25T12:02:53.642Z,2.45
2023-04-25T12:05:32.741Z,2.50
2023-04-25T12:08:13.472Z,2.40
2023-04-25T12:10:42.191Z,2.00
2023-04-25T12:13:23.941Z,2.85
2023-04-25T12:15:52.025Z,2.33
2023-04-25T12:18:22.928Z,1.70
2023-04-25T12:20:54.289Z,2.25
2023-04-25T12:23:28.406Z,2.08
2023-04-25T12:25:56.830Z,2.00
2023-04-25T12:28:27.866Z,1.80
2023-04-25T12:30:58.939Z,2.27
2023-04-25T12:33:27.922Z,1.60
2023-04-25T12:35:58.451Z,2.00
2023-04-25T12:38:27.703Z,1.92
2023-04-25T12:40:56.273Z,1.85
2023-04-25T12:43:24.052Z,2.40
2023-04-25T12:45:52.347Z,1.50
2023-04-25T12:48:20.421Z,1.50
2023-04-25T12:50:50.123Z,2.00
2023-04-25T12:53:19.847Z,2.00
2023-04-25T12:55:48.478Z,1.92
2023-04-25T12:58:17.035Z,1.38
2023-04-25T13:00:45.497Z,1.88
2023-04-25T13:03:14.221Z,2.00
2023-04-25T13:05:42.667Z,2.08
2023-04-25T13:08:10.665Z,1.58
2023-04-25T13:10:40.499Z,1.50
2023-04-25T13:13:08.479Z,2.03
2023-04-25T13:15:36.591Z,1.70
2023-04-25T13:18:06.535Z,1.80
2023-04-25T13:20:34.961Z,1.67
2023-04-25T13:23:03.182Z,2.17
2023-04-25T13:25:31.276Z,1.90
2023-04-25T13:28:00.550Z,1.83
2023-04-25T13:30:28.641Z,1.45
2023-04-25T13:32:57.952Z,1.45
2023-04-25T13:35:25.753Z,2.35
2023-04-25T13:37:53.387Z,2.60
2023-04-25T13:40:22.815Z,2.00
2023-04-25T13:42:52.638Z,1.92
2023-04-25T13:45:22.176Z,1.85
2023-04-25T13:47:51.049Z,2.10
2023-04-25T13:50:19.401Z,2.42
2023-04-25T13:52:47.240Z,1.80
2023-04-25T13:55:15.157Z,1.92
2023-04-25T13:57:43.010Z,1.92
2023-04-25T14:00:12.125Z,2.45
2023-04-25T14:02:41.630Z,2.58
2023-04-25T14:05:10.607Z,2.42
2023-04-25T14:07:39.345Z,2.30
2023-04-25T14:10:08.253Z,2.70
2023-04-25T14:12:36.241Z,2.08
2023-04-25T14:15:04.678Z,2.50
2023-04-25T14:17:32.559Z,2.85
2023-04-25T14:20:02.021Z,2.50
2023-04-25T14:22:29.743Z,1.98
2023-04-25T14:24:57.444Z,2.33
2023-04-25T14:27:28.588Z,2.33
2023-04-25T14:29:57.473Z,2.45
2023-04-25T14:32:25.706Z,2.30
2023-04-25T14:34:53.461Z,2.78
2023-04-25T14:37:22.423Z,2.03
2023-04-25T14:39:50.459Z,2.63
2023-04-25T14:42:18.586Z,2.00
2023-04-25T14:44:47.414Z,2.17
2023-04-25T14:47:15.394Z,2.08
2023-04-25T14:49:43.473Z,2.20
2023-04-25T14:52:11.568Z,2.03
2023-04-25T14:54:40.976Z,2.45
2023-04-25T14:57:08.828Z,2.90
2023-04-25T14:59:36.610Z,2.00
2023-04-25T15:02:04.465Z,2.55
2023-04-25T15:04:32.963Z,2.17
2023-04-25T15:07:00.918Z,1.92
2023-04-25T15:09:29.735Z,2.30
2023-04-25T15:11:59.511Z,2.10
2023-04-25T15:14:27.610Z,2.30
2023-04-25T15:16:55.615Z,1.73
2023-04-25T15:19:24.345Z,1.60
2023-04-25T15:21:52.105Z,2.45
2023-04-25T15:24:20.379Z,2.20
2023-04-25T15:26:48.224Z,1.63
2023-04-25T15:29:17.966Z,2.03
2023-04-25T15:31:46.501Z,2.08
2023-04-25T15:34:14.728Z,1.70
2023-04-25T15:36:42.564Z,2.10
2023-04-25T15:39:10.972Z,2.03
2023-04-25T15:41:39.429Z,1.95
2023-04-25T15:44:08.316Z,2.17
2023-04-25T15:46:37.770Z,1.92
2023-04-25T15:49:06.160Z,2.10
2023-04-25T15:51:34.733Z,2.47
2023-04-25T15:54:04.483Z,3.13
2023-04-25T15:56:32.444Z,1.48
2023-04-25T15:59:00.164Z,1.63
2023-04-25T16:01:31.121Z,2.08
2023-04-25T16:04:00.771Z,2.88
2023-04-25T16:06:28.963Z,2.58
2023-04-25T16:08:57.500Z,3.28
2023-04-25T16:11:25.990Z,3.20
2023-04-25T16:13:54.106Z,5.93
2023-04-25T16:16:22.228Z,6.78
2023-04-25T16:18:50.313Z,8.30
2023-04-25T16:21:19.630Z,8.77
2023-04-25T16:23:47.604Z,9.40
2023-04-25T16:26:16.208Z,8.45
2023-04-25T16:28:44.398Z,8.50
2023-04-25T16:31:12.406Z,8.48
2023-04-25T16:33:40.119Z,8.05
2023-04-25T16:36:09.499Z,8.07
2023-04-25T16:38:39.730Z,7.18
2023-04-25T16:41:08.616Z,7.55
2023-04-25T16:43:36.490Z,6.72
2023-04-25T16:46:04.574Z,6.65
2023-04-25T16:48:32.126Z,6.80
2023-04-25T16:51:00.402Z,8.80
2023-04-25T16:53:28.633Z,7.63
2023-04-25T16:55:58.672Z,7.68
2023-04-25T16:58:27.138Z,5.72
2023-04-25T17:00:56.075Z,6.07
2023-04-25T17:03:24.125Z,6.03
2023-04-25T17:05:52.138Z,6.32
2023-04-25T17:08:19.702Z,5.05
2023-04-25T17:10:47.428Z,5.65
2023-04-25T17:13:17.238Z,5.60
2023-04-25T17:15:45.322Z,5.30
2023-04-25T17:18:12.989Z,6.05
2023-04-25T17:20:40.957Z,4.57
2023-04-25T17:23:08.642Z,4.20
2023-04-25T17:25:36.571Z,4.53
2023-04-25T17:28:04.486Z,4.72
2023-04-25T17:30:34.491Z,4.15
2023-04-25T17:33:02.239Z,4.22
2023-04-25T17:35:30.163Z,4.00
2023-04-25T17:37:58.100Z,3.92
2023-04-25T17:40:26.997Z,3.83
2023-04-25T17:42:54.661Z,3.53
2023-04-25T17:45:22.612Z,3.88
2023-04-25T17:47:51.818Z,3.97
2023-04-25T17:50:20.692Z,4.13
2023-04-25T17:52:49.490Z,4.68
2023-04-25T17:55:17.478Z,4.05
2023-04-25T17:57:45.241Z,3.30
2023-04-25T18:00:14.350Z,3.85
2023-04-25T18:02:42.156Z,4.15
2023-04-25T18:05:11.373Z,3.50
2023-04-25T18:07:39.745Z,4.63
2023-04-25T18:10:09.460Z,3.88
2023-04-25T18:12:38.458Z,4.00
2023-04-25T18:15:07.739Z,2.72
2023-04-25T18:17:40.450Z,3.60
2023-04-25T18:20:14.982Z,3.15
2023-04-25T18:22:44.559Z,2.88
2023-04-25T18:25:13.686Z,3.83
2023-04-25T18:27:42.410Z,3.42
2023-04-25T18:30:12.779Z,3.17
2023-04-25T18:32:41.962Z,3.53
2023-04-25T18:35:12.209Z,3.35
2023-04-25T18:37:42.058Z,2.92
2023-04-25T18:40:13.967Z,3.28
2023-04-25T18:42:42.036Z,3.60
2023-04-25T18:45:11.419Z,2.72
2023-04-25T18:47:39.652Z,3.10
2023-04-25T18:50:09.003Z,2.97
2023-04-25T18:52:38.166Z,2.95
2023-04-25T18:55:07.266Z,2.88
2023-04-25T18:57:35.132Z,2.88
2023-04-25T19:00:05.668Z,2.88
2023-04-25T19:02:33.602Z,2.75
2023-04-25T19:05:01.530Z,2.67
2023-04-25T19:07:30.818Z,2.65
2023-04-25T19:10:00.646Z,3.05
2023-04-25T19:12:28.638Z,2.25
2023-04-25T19:14:56.887Z,2.88
2023-04-25T19:17:24.712Z,2.30
2023-04-25T19:19:52.553Z,2.78
2023-04-25T19:22:20.673Z,2.50
2023-04-25T19:24:53.047Z,2.80
2023-04-25T19:27:41.241Z,2.60
2023-04-25T19:30:10.781Z,2.78
2023-04-25T19:32:39.607Z,2.97
2023-04-25T19:35:11.415Z,2.47
2023-04-25T19:37:46.295Z,2.40
2023-04-25T19:40:16.041Z,3.15
2023-04-25T19:42:45.826Z,2.50
2023-04-25T19:45:13.833Z,2.75
2023-04-25T19:47:42.464Z,2.50
2023-04-25T19:50:11.866Z,3.63
2023-04-25T19:52:40.261Z,2.92
2023-04-25T19:55:10.274Z,2.95
2023-04-25T19:57:38.290Z,2.00
2023-04-25T20:00:10.890Z,2.08
2023-04-25T20:02:39.312Z,2.50
2023-04-25T20:05:09.882Z,2.20
2023-04-25T20:07:37.866Z,2.13
2023-04-25T20:10:07.893Z,2.40
2023-04-25T20:12:37.205Z,2.45
2023-04-25T20:15:05.602Z,1.90
2023-04-25T20:17:35.143Z,1.98
2023-04-25T20:20:05.030Z,2.08
2023-04-25T20:22:36.083Z,1.88
2023-04-25T20:25:05.500Z,2.47
2023-04-25T20:27:33.442Z,2.25
2023-04-25T20:30:04.772Z,2.50
2023-04-25T20:32:34.295Z,2.15
2023-04-25T20:35:03.565Z,2.00
2023-04-25T20:37:32.620Z,2.20
2023-04-25T20:40:00.863Z,2.08
2023-04-25T20:42:28.705Z,1.98
2023-04-25T20:44:57.108Z,2.15
2023-04-25T20:47:25.204Z,1.90
2023-04-25T20:49:54.467Z,2.28
2023-04-25T20:52:22.771Z,2.17
2023-04-25T20:54:52.421Z,2.25
2023-04-25T20:57:20.182Z,1.92
2023-04-25T20:59:49.567Z,2.67
2023-04-25T21:02:19.300Z,1.90
2023-04-25T21:04:47.444Z,2.08
2023-04-25T21:07:16.720Z,1.88
2023-04-25T21:09:45.608Z,1.98
2023-04-25T21:12:13.673Z,1.80
2023-04-25T21:14:41.311Z,2.13
2023-04-25T21:17:09.141Z,1.60
2023-04-25T21:19:36.883Z,1.92
2023-04-25T21:22:04.648Z,1.80
2023-04-25T21:24:33.950Z,1.60
2023-04-25T21:27:02.566Z,1.52
2023-04-25T21:29:31.040Z,2.28
2023-04-25T21:31:59.128Z,1.70
2023-04-25T21:34:27.092Z,2.53
2023-04-25T21:36:55.050Z,1.80
2023-04-25T21:39:23.638Z,1.85
2023-04-25T21:41:52.797Z,1.42
2023-04-25T21:44:20.780Z,1.80
2023-04-25T21:46:48.528Z,1.60
2023-04-25T21:49:16.735Z,1.95
2023-04-25T21:51:44.544Z,1.80
2023-04-25T21:54:12.666Z,1.65
2023-04-25T21:56:40.513Z,1.65
2023-04-25T21:59:10.229Z,4.93
2023-04-25T22:01:38.455Z,5.22
2023-04-25T22:04:06.894Z,3.88
2023-04-25T22:06:34.974Z,3.58
2023-04-25T22:09:04.880Z,3.22
2023-04-25T22:11:33.671Z,3.25
2023-04-25T22:14:01.433Z,3.33
2023-04-25T22:16:30.614Z,3.45
2023-04-25T22:18:59.384Z,3.33
2023-04-25T22:21:27.860Z,3.67
2023-04-25T22:23:56.696Z,3.78
2023-04-25T22:26:25.467Z,3.63
2023-04-25T22:28:53.562Z,3.08
2023-04-25T22:31:21.517Z,2.58
2023-04-25T22:33:51.489Z,3.40
2023-04-25T22:36:19.700Z,3.33
2023-04-25T22:38:47.700Z,2.83
2023-04-25T22:41:15.687Z,3.35
2023-04-25T22:43:43.407Z,3.92
2023-04-25T22:46:16.768Z,2.88
2023-04-25T22:48:44.978Z,3.13
2023-04-25T22:51:14.491Z,3.60
2023-04-25T22:53:45.474Z,3.25
2023-04-25T22:56:13.825Z,2.83
2023-04-25T22:58:41.478Z,2.45
2023-04-25T23:01:09.474Z,2.92
2023-04-25T23:03:38.153Z,2.75
2023-04-25T23:06:06.713Z,2.28
2023-04-25T23:08:35.809Z,2.55
2023-04-25T23:11:07.783Z,2.45
2023-04-25T23:16:09.053Z,2.63
2023-04-25T23:18:36.701Z,2.60
2023-04-25T23:21:07.378Z,2.00
2023-04-25T23:23:36.772Z,2.03
2023-04-25T23:26:08.236Z,2.30
2023-04-25T23:28:39.908Z,2.55
2023-04-25T23:31:11.671Z,2.60
2023-04-25T23:33:40.096Z,1.88
2023-04-25T23:36:08.639Z,2.63
2023-04-25T23:38:37.937Z,1.67
2023-04-25T23:41:05.764Z,2.20
2023-04-25T23:43:33.569Z,1.90
2023-04-25T23:46:01.509Z,2.08
2023-04-25T23:48:29.652Z,2.05
2023-04-25T23:50:57.710Z,2.05
2023-04-25T23:53:25.472Z,2.20
2023-04-25T23:55:54.589Z,1.67
2023-04-25T23:58:22.545Z,2.00
